createdAt,value
2023-02-06T00:01:37.853Z,96294.72
2023-02-06T00:04:05.072Z,96268.69
2023-02-06T00:06:32.537Z,96302.16
2023-02-06T00:08:59.298Z,96283.13
2023-02-06T00:11:26.168Z,96308.19
2023-02-06T00:13:53.575Z,96331.81
2023-02-06T00:16:27.501Z,96317.00
2023-02-06T00:18:56.504Z,96322.31
2023-02-06T00:21:26.198Z,96307.22
2023-02-06T00:23:55.240Z,96313.94
2023-02-06T00:26:22.808Z,96297.91
2023-02-06T00:28:49.636Z,96280.03
2023-02-06T00:31:17.596Z,96286.91
2023-02-06T00:33:44.435Z,96310.59
2023-02-06T00:36:11.451Z,96294.25
2023-02-06T00:38:38.573Z,96294.25
2023-02-06T00:41:05.703Z,96318.31
2023-02-06T00:43:32.729Z,96320.19
2023-02-06T00:45:59.553Z,96325.69
2023-02-06T00:48:26.332Z,96296.03
2023-02-06T00:50:54.139Z,96345.38
2023-02-06T00:53:21.704Z,96333.31
2023-02-06T00:55:48.441Z,96326.44
2023-02-06T00:58:15.261Z,96286.25
2023-02-06T01:00:42.052Z,96336.97
2023-02-06T01:03:08.874Z,96334.66
2023-02-06T01:05:36.675Z,96344.75
2023-02-06T01:08:04.603Z,96348.72
2023-02-06T01:10:32.746Z,96341.03
2023-02-06T01:12:59.536Z,96333.75
2023-02-06T01:15:26.290Z,96323.50
2023-02-06T01:17:53.097Z,96354.88
2023-02-06T01:20:21.610Z,96341.38
2023-02-06T01:22:48.553Z,96330.81
2023-02-06T01:25:15.534Z,96347.09
2023-02-06T01:27:42.360Z,96324.22
2023-02-06T01:30:10.348Z,96334.31
2023-02-06T01:32:39.671Z,96325.75
2023-02-06T01:35:09.109Z,96335.50
2023-02-06T01:37:36.872Z,96329.06
2023-02-06T01:40:06.689Z,96332.19
2023-02-06T01:42:38.457Z,96333.88
2023-02-06T01:45:26.591Z,96329.94
2023-02-06T01:48:06.470Z,96326.66
2023-02-06T01:50:36.340Z,96301.94
2023-02-06T01:53:05.270Z,96324.97
2023-02-06T01:55:32.867Z,96316.63
2023-02-06T01:58:01.287Z,96306.88
2023-02-06T02:00:28.189Z,96287.72
2023-02-06T02:02:55.105Z,96296.34
2023-02-06T02:05:22.170Z,96286.09
2023-02-06T02:08:01.226Z,96303.53
2023-02-06T02:10:32.361Z,96298.28
2023-02-06T02:12:59.171Z,96280.63
2023-02-06T02:16:17.409Z,96307.66
2023-02-06T02:19:21.215Z,96302.16
2023-02-06T02:22:06.725Z,96305.59
2023-02-06T02:25:17.739Z,96309.13
2023-02-06T02:28:24.361Z,96323.69
2023-02-06T02:31:33.335Z,96308.13
2023-02-06T02:34:40.142Z,96298.97
2023-02-06T02:37:34.156Z,96302.03
2023-02-06T02:40:39.950Z,96308.94
2023-02-06T02:43:18.602Z,96302.16
2023-02-06T02:46:48.473Z,96307.53
2023-02-06T02:49:24.121Z,96299.88
2023-02-06T02:51:51.979Z,96307.53
2023-02-06T02:54:19.009Z,96297.72
2023-02-06T02:56:45.802Z,96306.59
2023-02-06T02:59:29.135Z,96309.06
2023-02-06T03:02:00.051Z,96303.88
2023-02-06T03:05:02.240Z,96295.44
2023-02-06T03:07:47.304Z,96302.47
2023-02-06T03:10:39.392Z,96297.88
2023-02-06T03:13:35.051Z,96293.78
2023-02-06T03:16:20.728Z,96298.81
2023-02-06T03:19:06.297Z,96309.94
2023-02-06T03:21:36.368Z,96288.50
2023-02-06T03:24:10.764Z,96289.31
2023-02-06T03:26:38.500Z,96299.53
2023-02-06T03:29:10.009Z,96306.47
2023-02-06T03:31:56.999Z,96301.06
2023-02-06T03:34:28.556Z,96308.72
2023-02-06T03:36:55.456Z,96280.91
2023-02-06T03:39:23.196Z,96294.34
2023-02-06T03:41:51.563Z,96306.13
2023-02-06T03:44:25.073Z,96324.50
2023-02-06T03:46:55.325Z,96279.25
2023-02-06T03:49:25.204Z,96297.72
2023-02-06T03:51:58.446Z,96292.53
2023-02-06T03:54:26.679Z,96277.53
2023-02-06T03:56:59.742Z,96300.47
2023-02-06T03:59:26.680Z,96295.28
2023-02-06T04:01:58.065Z,96291.84
2023-02-06T04:04:32.941Z,96292.69
2023-02-06T04:07:05.699Z,96281.84
2023-02-06T04:09:32.328Z,96283.66
2023-02-06T04:11:59.044Z,96301.94
2023-02-06T04:14:25.925Z,96294.34
2023-02-06T04:16:52.663Z,96305.06
2023-02-06T04:19:19.457Z,96283.00
2023-02-06T04:21:46.196Z,96301.34
2023-02-06T04:24:12.919Z,96281.19
2023-02-06T04:26:39.663Z,96280.91
2023-02-06T04:29:06.509Z,96300.47
2023-02-06T04:31:33.385Z,96301.16
2023-02-06T04:34:00.148Z,96268.81
2023-02-06T04:36:26.960Z,96287.31
2023-02-06T04:38:53.706Z,96271.94
2023-02-06T04:41:20.484Z,96247.25
2023-02-06T04:43:47.225Z,96250.56
2023-02-06T04:46:13.959Z,96255.28
2023-02-06T04:48:40.781Z,96221.25
2023-02-06T04:51:07.501Z,96267.28
2023-02-06T04:53:34.377Z,96276.28
2023-02-06T04:56:07.208Z,96257.72
2023-02-06T04:59:08.863Z,96278.34
2023-02-06T05:01:35.886Z,96273.88
2023-02-06T05:04:02.721Z,96286.25
2023-02-06T05:06:31.243Z,96280.91
2023-02-06T05:08:59.899Z,96280.19
2023-02-06T05:11:27.143Z,96274.38
2023-02-06T05:13:54.018Z,96259.03
2023-02-06T05:16:20.925Z,96275.00
2023-02-06T05:18:47.704Z,96283.84
2023-02-06T05:21:16.363Z,96282.91
2023-02-06T05:23:43.129Z,96274.06
2023-02-06T05:26:09.933Z,96292.34
2023-02-06T05:28:36.742Z,96288.00
2023-02-06T05:31:04.819Z,96295.09
2023-02-06T05:33:31.788Z,96271.41
2023-02-06T05:36:06.674Z,96292.97
2023-02-06T05:38:34.549Z,96253.13
2023-02-06T05:41:01.368Z,96255.44
2023-02-06T05:43:28.133Z,96280.19
2023-02-06T05:45:55.125Z,96227.41
2023-02-06T05:48:22.002Z,96260.03
2023-02-06T05:50:49.870Z,96291.38
2023-02-06T05:53:17.782Z,96280.88
2023-02-06T05:55:44.589Z,96293.03
2023-02-06T05:58:12.397Z,96271.75
2023-02-06T06:00:39.321Z,96256.81
2023-02-06T06:03:06.126Z,96269.63
2023-02-06T06:05:33.671Z,96292.91
2023-02-06T06:08:00.717Z,96287.06
2023-02-06T06:10:27.692Z,96274.59
2023-02-06T06:12:54.480Z,96290.97
2023-02-06T06:15:21.245Z,96280.06
2023-02-06T06:17:47.981Z,96297.56
2023-02-06T06:20:14.781Z,96272.34
2023-02-06T06:22:41.620Z,96278.38
2023-02-06T06:25:08.642Z,96264.94
2023-02-06T06:27:35.402Z,96281.53
2023-02-06T06:30:02.187Z,96259.97
2023-02-06T06:32:28.969Z,96286.38
2023-02-06T06:34:55.719Z,96237.13
2023-02-06T06:37:22.553Z,96280.44
2023-02-06T06:39:49.317Z,96292.03
2023-02-06T06:42:16.057Z,96295.94
2023-02-06T06:44:42.781Z,96309.44
2023-02-06T06:47:10.916Z,96303.78
2023-02-06T06:49:37.692Z,96305.19
2023-02-06T06:52:08.865Z,96317.66
2023-02-06T06:54:40.270Z,96322.91
2023-02-06T06:57:07.125Z,96317.25
2023-02-06T06:59:34.022Z,96326.75
2023-02-06T07:02:00.894Z,96326.91
2023-02-06T07:04:31.525Z,96311.66
2023-02-06T07:06:58.344Z,96327.81
2023-02-06T07:09:25.408Z,96333.97
2023-02-06T07:11:52.190Z,96310.22
2023-02-06T07:14:18.990Z,96306.88
2023-02-06T07:16:45.822Z,96319.06
2023-02-06T07:19:12.745Z,96305.34
2023-02-06T07:21:39.574Z,96319.75
2023-02-06T07:24:06.810Z,96302.25
2023-02-06T07:26:33.583Z,96307.09
2023-02-06T07:29:00.534Z,96321.03
2023-02-06T07:31:27.291Z,96289.69
2023-02-06T07:33:54.040Z,96322.69
2023-02-06T07:36:20.832Z,96313.03
2023-02-06T07:38:47.630Z,96286.63
2023-02-06T07:41:14.593Z,96320.06
2023-02-06T07:43:41.392Z,96298.75
2023-02-06T07:46:08.216Z,96313.41
2023-02-06T07:48:35.013Z,96303.66
2023-02-06T07:51:08.744Z,96331.16
2023-02-06T07:53:36.848Z,96330.41
2023-02-06T07:56:14.685Z,96317.94
2023-02-06T07:58:41.553Z,96330.56
2023-02-06T08:01:08.932Z,96308.69
2023-02-06T08:03:36.210Z,96324.31
2023-02-06T08:06:09.812Z,96339.38
2023-02-06T08:08:36.574Z,96322.13
2023-02-06T08:11:12.700Z,96330.34
2023-02-06T08:13:39.837Z,96325.91
2023-02-06T08:16:10.954Z,96314.72
2023-02-06T08:18:38.253Z,96326.41
2023-02-06T08:21:26.657Z,96334.66
2023-02-06T08:23:59.920Z,96270.53
2023-02-06T08:26:29.826Z,96332.66
2023-02-06T08:28:58.773Z,96298.09
2023-02-06T08:31:31.163Z,96318.63
2023-02-06T08:33:58.041Z,96312.78
2023-02-06T08:36:26.127Z,96316.25
2023-02-06T08:38:53.349Z,96301.06
2023-02-06T08:41:24.928Z,96298.59
2023-02-06T08:43:55.670Z,96285.97
2023-02-06T08:46:25.336Z,96289.56
2023-02-06T08:49:08.961Z,96304.06
2023-02-06T08:51:36.897Z,96315.50
2023-02-06T08:54:07.754Z,96295.38
2023-02-06T08:56:36.435Z,96320.50
2023-02-06T08:59:04.985Z,96318.19
2023-02-06T09:01:34.590Z,96258.25
2023-02-06T09:04:06.527Z,96320.44
2023-02-06T09:06:36.610Z,96299.91
2023-02-06T09:09:05.369Z,96258.97
2023-02-06T09:11:32.331Z,96306.34
2023-02-06T09:14:02.304Z,96299.81
2023-02-06T09:16:32.538Z,96299.06
2023-02-06T09:19:01.557Z,96297.72
2023-02-06T09:21:31.557Z,96314.38
2023-02-06T09:24:02.083Z,96317.03
2023-02-06T09:26:50.283Z,96304.34
2023-02-06T09:29:24.272Z,96289.25
2023-02-06T09:31:51.095Z,96301.97
2023-02-06T09:34:17.881Z,96296.47
2023-02-06T09:36:44.953Z,96284.81
2023-02-06T09:39:11.808Z,96278.28
2023-02-06T09:41:55.504Z,96291.97
2023-02-06T09:44:37.040Z,96291.13
2023-02-06T09:47:28.901Z,96293.19
2023-02-06T09:50:07.605Z,96298.06
2023-02-06T09:52:58.439Z,96296.22
2023-02-06T09:56:15.397Z,96291.22
2023-02-06T09:58:51.637Z,96293.72
2023-02-06T10:01:41.674Z,96266.91
2023-02-06T10:04:40.705Z,96276.78
2023-02-06T10:07:19.318Z,96287.38
2023-02-06T10:09:56.179Z,96284.63
2023-02-06T10:12:31.513Z,96274.25
2023-02-06T10:15:16.940Z,96279.28
2023-02-06T10:18:11.674Z,96276.38
2023-02-06T10:20:51.608Z,96267.84
2023-02-06T10:23:39.726Z,96252.06
2023-02-06T10:26:23.515Z,96256.19
2023-02-06T10:28:57.180Z,96257.78
2023-02-06T10:31:53.172Z,96247.78
2023-02-06T10:34:47.799Z,96244.94
2023-02-06T10:38:08.134Z,96236.88
2023-02-06T10:40:34.871Z,96250.28
2023-02-06T10:43:28.476Z,96242.25
2023-02-06T10:46:19.959Z,96231.88
2023-02-06T10:49:24.110Z,96234.28
2023-02-06T10:51:56.274Z,96228.47
2023-02-06T10:54:49.510Z,96228.59
2023-02-06T10:57:25.103Z,96234.28
2023-02-06T10:59:56.106Z,96226.63
2023-02-06T11:02:39.422Z,96232.75
2023-02-06T11:05:23.222Z,96233.97
2023-02-06T11:08:08.085Z,96222.44
2023-02-06T11:10:35.202Z,96225.25
2023-02-06T11:13:14.112Z,96216.56
2023-02-06T11:16:03.049Z,96223.53
2023-02-06T11:18:40.670Z,96219.97
2023-02-06T11:21:09.924Z,96207.19
2023-02-06T11:23:36.843Z,96204.59
2023-02-06T11:26:15.608Z,96214.09
2023-02-06T11:28:56.106Z,96199.47
2023-02-06T11:31:45.615Z,96204.78
2023-02-06T11:34:33.471Z,96198.47
2023-02-06T11:37:06.816Z,96196.09
2023-02-06T11:39:38.395Z,96189.84
2023-02-06T11:42:15.405Z,96187.50
2023-02-06T11:44:45.498Z,96177.19
2023-02-06T11:47:37.435Z,96172.63
2023-02-06T11:50:13.426Z,96169.00
2023-02-06T11:52:46.574Z,96167.13
2023-02-06T11:55:36.794Z,96163.38
2023-02-06T11:58:09.728Z,96150.00
2023-02-06T12:00:38.147Z,96137.09
2023-02-06T12:03:05.802Z,96147.06
2023-02-06T12:05:42.674Z,96157.81
2023-02-06T12:08:17.339Z,96164.94
2023-02-06T12:10:58.722Z,96115.78
2023-02-06T12:13:34.119Z,96141.91
2023-02-06T12:16:04.522Z,96163.91
2023-02-06T12:18:40.593Z,96161.22
2023-02-06T12:21:20.261Z,96161.69
2023-02-06T12:23:55.659Z,96153.88
2023-02-06T12:26:27.817Z,96144.84
2023-02-06T12:29:15.281Z,96144.31
2023-02-06T12:32:18.495Z,96131.88
2023-02-06T12:35:00.548Z,96122.03
2023-02-06T12:37:41.591Z,96113.47
2023-02-06T12:40:47.281Z,96114.88
2023-02-06T12:43:16.725Z,96105.75
2023-02-06T12:46:01.792Z,96100.50
2023-02-06T12:49:13.193Z,96097.69
2023-02-06T12:51:53.768Z,96121.00
2023-02-06T12:54:34.138Z,96123.34
2023-02-06T12:57:15.811Z,96133.16
2023-02-06T13:00:20.925Z,96131.06
2023-02-06T13:03:35.362Z,96133.19
2023-02-06T13:06:25.946Z,96131.69
2023-02-06T13:09:00.853Z,96117.38
2023-02-06T13:11:39.205Z,96122.44
2023-02-06T13:14:18.416Z,96129.53
2023-02-06T13:16:59.746Z,96122.06
2023-02-06T13:19:37.436Z,96137.66
2023-02-06T13:22:10.468Z,96135.28
2023-02-06T13:24:42.607Z,96134.03
2023-02-06T13:27:09.269Z,96133.78
2023-02-06T13:29:48.938Z,96130.81
2023-02-06T13:32:15.637Z,96128.53
2023-02-06T13:34:45.106Z,96124.16
2023-02-06T13:37:39.077Z,96123.34
2023-02-06T13:40:24.052Z,96126.53
2023-02-06T13:43:19.581Z,96114.34
2023-02-06T13:45:58.697Z,96123.47
2023-02-06T13:48:56.813Z,96128.97
2023-02-06T13:51:29.296Z,96130.97
2023-02-06T13:54:44.514Z,96125.88
2023-02-06T13:57:39.762Z,96110.16
2023-02-06T14:00:21.224Z,96115.25
2023-02-06T14:02:56.454Z,96130.28
2023-02-06T14:05:34.544Z,96143.56
2023-02-06T14:08:34.451Z,96134.66
2023-02-06T14:11:19.122Z,96107.75
2023-02-06T14:13:55.840Z,96123.69
2023-02-06T14:16:41.930Z,96125.94
2023-02-06T14:19:30.808Z,96133.88
2023-02-06T14:22:17.065Z,96123.06
2023-02-06T14:25:12.570Z,96123.59
2023-02-06T14:27:51.977Z,96121.34
2023-02-06T14:30:31.591Z,96123.31
2023-02-06T14:33:26.171Z,96129.69
2023-02-06T14:36:23.229Z,96123.28
2023-02-06T14:39:27.052Z,96125.41
2023-02-06T14:41:54.167Z,96115.34
2023-02-06T14:44:29.798Z,96100.06
2023-02-06T14:46:57.476Z,96127.53
2023-02-06T14:49:33.997Z,96105.09
2023-02-06T14:52:05.020Z,96120.28
2023-02-06T14:54:38.804Z,96133.81
2023-02-06T14:57:16.585Z,96144.03
2023-02-06T14:59:59.379Z,96148.66
2023-02-06T15:02:37.448Z,96141.66
2023-02-06T15:05:06.506Z,96125.81
2023-02-06T15:07:38.861Z,96142.28
2023-02-06T15:10:15.013Z,96141.53
2023-02-06T15:12:42.447Z,96133.69
2023-02-06T15:15:19.764Z,96152.72
2023-02-06T15:18:07.746Z,96139.69
2023-02-06T15:20:40.414Z,96148.97
2023-02-06T15:23:27.037Z,96154.59
2023-02-06T15:26:12.784Z,96173.22
2023-02-06T15:28:41.293Z,96174.09
2023-02-06T15:31:19.153Z,96166.44
2023-02-06T15:33:53.281Z,96168.69
2023-02-06T15:36:28.629Z,96177.78
2023-02-06T15:38:55.872Z,96194.47
2023-02-06T15:41:23.076Z,96171.28
2023-02-06T15:43:53.400Z,96174.03
2023-02-06T15:46:20.545Z,96167.44
2023-02-06T15:48:47.188Z,96173.88
2023-02-06T15:51:20.409Z,96179.97
2023-02-06T15:53:48.711Z,96156.31
2023-02-06T15:56:30.944Z,96174.75
2023-02-06T15:59:04.573Z,96170.28
2023-02-06T16:01:37.171Z,96172.09
2023-02-06T16:04:12.349Z,96182.34
2023-02-06T16:06:39.265Z,96160.44
2023-02-06T16:09:08.775Z,96174.03
2023-02-06T16:11:51.052Z,96169.31
2023-02-06T16:14:34.824Z,96182.16
2023-02-06T16:17:22.469Z,96176.44
2023-02-06T16:19:57.010Z,96172.59
2023-02-06T16:22:37.383Z,96147.22
2023-02-06T16:25:31.574Z,96156.81
2023-02-06T16:27:59.956Z,96164.94
2023-02-06T16:30:34.692Z,96173.41
2023-02-06T16:33:32.915Z,96150.75
2023-02-06T16:35:59.964Z,96140.34
2023-02-06T16:38:26.801Z,96158.84
2023-02-06T16:40:54.028Z,96162.81
2023-02-06T16:43:20.806Z,96162.13
2023-02-06T16:45:49.202Z,96153.06
2023-02-06T16:48:18.885Z,96117.03
2023-02-06T16:50:47.859Z,96187.09
2023-02-06T16:53:23.542Z,96180.25
2023-02-06T16:55:50.944Z,96156.63
2023-02-06T16:58:24.637Z,96186.31
2023-02-06T17:00:51.517Z,96177.50
2023-02-06T17:03:18.424Z,96175.06
2023-02-06T17:05:47.888Z,96173.91
2023-02-06T17:08:23.264Z,96171.97
2023-02-06T17:10:50.448Z,96173.25
2023-02-06T17:13:23.662Z,96155.59
2023-02-06T17:15:54.399Z,96166.16
2023-02-06T17:18:23.123Z,96137.59
2023-02-06T17:20:52.938Z,96156.59
2023-02-06T17:23:20.225Z,96134.34
2023-02-06T17:25:47.151Z,96142.88
2023-02-06T17:28:18.650Z,96137.69
2023-02-06T17:30:46.421Z,96118.44
2023-02-06T17:33:13.210Z,96121.63
2023-02-06T17:35:40.032Z,96128.19
2023-02-06T17:38:09.310Z,96137.44
2023-02-06T17:40:38.215Z,96141.63
2023-02-06T17:43:07.123Z,96147.50
2023-02-06T17:45:35.737Z,96148.44
2023-02-06T17:48:02.713Z,96123.00
2023-02-06T17:50:30.105Z,96124.56
2023-02-06T17:52:58.969Z,96136.16
2023-02-06T17:55:27.814Z,96138.53
2023-02-06T17:57:55.058Z,96145.53
2023-02-06T18:00:23.851Z,96151.28
2023-02-06T18:02:55.258Z,96151.28
2023-02-06T18:05:23.168Z,96135.78
2023-02-06T18:07:51.734Z,96120.75
2023-02-06T18:10:21.064Z,96130.72
2023-02-06T18:12:47.940Z,96116.19
2023-02-06T18:15:15.546Z,96125.41
2023-02-06T18:17:43.304Z,96108.31
2023-02-06T18:20:11.803Z,96120.25
2023-02-06T18:22:41.684Z,96129.72
2023-02-06T18:25:11.537Z,96105.13
2023-02-06T18:27:40.129Z,96132.25
2023-02-06T18:30:08.307Z,96125.41
2023-02-06T18:32:38.213Z,96106.22
2023-02-06T18:35:07.286Z,96087.56
2023-02-06T18:37:35.114Z,96099.50
2023-02-06T18:40:01.979Z,96090.06
2023-02-06T18:42:47.452Z,96118.66
2023-02-06T18:45:14.336Z,96115.59
2023-02-06T18:47:42.448Z,96109.03
2023-02-06T18:50:11.889Z,96102.75
2023-02-06T18:52:39.516Z,96092.75
2023-02-06T18:55:08.369Z,96103.25
2023-02-06T18:57:35.989Z,96100.88
2023-02-06T19:00:06.992Z,96092.25
2023-02-06T19:02:33.781Z,96107.66
2023-02-06T19:05:00.765Z,96080.75
2023-02-06T19:07:27.810Z,96076.19
2023-02-06T19:10:04.267Z,96091.97
2023-02-06T19:12:31.319Z,96091.81
2023-02-06T19:14:59.114Z,96088.59
2023-02-06T19:17:27.902Z,96076.44
2023-02-06T19:19:54.933Z,96087.41
2023-02-06T19:22:21.776Z,96090.16
2023-02-06T19:24:53.314Z,96091.97
2023-02-06T19:27:21.507Z,96088.25
2023-02-06T19:29:48.635Z,96088.34
2023-02-06T19:32:15.401Z,96065.69
2023-02-06T19:34:44.149Z,96061.13
2023-02-06T19:37:12.401Z,96077.91
2023-02-06T19:39:40.451Z,96074.69
2023-02-06T19:42:10.121Z,96066.63
2023-02-06T19:44:37.668Z,96056.28
2023-02-06T19:47:04.908Z,96072.06
2023-02-06T19:49:31.941Z,96066.28
2023-02-06T19:51:58.892Z,96059.28
2023-02-06T19:54:26.177Z,96063.69
2023-02-06T19:56:53.222Z,96044.66
2023-02-06T19:59:29.143Z,96070.78
2023-02-06T20:02:01.729Z,96069.84
2023-02-06T20:04:35.559Z,96067.91
2023-02-06T20:07:03.051Z,96071.41
2023-02-06T20:09:30.768Z,96059.13
2023-02-06T20:11:58.011Z,96069.31
2023-02-06T20:14:26.712Z,96057.69
2023-02-06T20:16:53.666Z,96062.75
2023-02-06T20:19:27.030Z,96060.78
2023-02-06T20:21:59.607Z,96061.97
2023-02-06T20:24:31.823Z,96053.19
2023-02-06T20:27:03.425Z,96053.09
2023-02-06T20:29:37.799Z,96054.41
2023-02-06T20:32:06.568Z,96034.31
2023-02-06T20:34:34.565Z,96026.38
2023-02-06T20:37:01.443Z,96029.88
2023-02-06T20:39:31.277Z,96024.63
2023-02-06T20:41:58.471Z,96037.16
2023-02-06T20:44:25.234Z,96006.44
2023-02-06T20:46:52.279Z,96035.53
2023-02-06T20:49:26.199Z,96035.59
2023-02-06T20:51:53.539Z,96038.81
2023-02-06T20:54:21.793Z,96048.97
2023-02-06T20:56:49.457Z,96051.69
2023-02-06T20:59:19.347Z,95949.25
2023-02-06T21:01:46.572Z,95995.88
2023-02-06T21:04:16.239Z,96013.38
2023-02-06T21:06:44.103Z,95990.81
2023-02-06T21:09:12.288Z,96000.50
2023-02-06T21:11:48.122Z,96011.94
2023-02-06T21:14:16.008Z,96016.16
2023-02-06T21:16:44.082Z,96031.41
2023-02-06T21:19:14.429Z,96013.13
2023-02-06T21:21:43.703Z,96004.78
2023-02-06T21:24:13.348Z,96007.38
2023-02-06T21:26:40.221Z,95975.47
2023-02-06T21:29:07.903Z,96024.50
2023-02-06T21:31:38.346Z,96058.13
2023-02-06T21:34:09.985Z,96049.47
2023-02-06T21:36:39.477Z,96074.03
2023-02-06T21:39:07.761Z,96069.75
2023-02-06T21:41:36.469Z,96053.94
2023-02-06T21:44:03.644Z,96054.38
2023-02-06T21:46:31.072Z,96061.72
2023-02-06T21:48:57.939Z,96036.06
2023-02-06T21:51:24.841Z,96049.66
2023-02-06T21:53:51.905Z,96036.81
2023-02-06T21:56:25.954Z,96054.38
2023-02-06T21:58:53.217Z,96025.88
2023-02-06T22:01:27.845Z,96039.16
2023-02-06T22:03:56.910Z,96015.91
2023-02-06T22:06:24.023Z,96026.25
2023-02-06T22:08:54.364Z,96046.19
2023-02-06T22:11:29.823Z,96058.38
2023-02-06T22:14:02.982Z,96026.44
2023-02-06T22:16:30.161Z,96048.06
2023-02-06T22:18:57.112Z,96046.22
2023-02-06T22:21:27.454Z,96030.72
2023-02-06T22:23:58.497Z,96053.94
2023-02-06T22:26:26.462Z,96051.59
2023-02-06T22:28:53.361Z,96060.16
2023-02-06T22:31:24.652Z,96047.03
2023-02-06T22:33:53.163Z,96062.22
2023-02-06T22:36:24.895Z,96047.59
2023-02-06T22:39:06.601Z,96052.94
2023-02-06T22:41:35.582Z,96045.28
2023-02-06T22:44:02.577Z,96008.69
2023-02-06T22:46:37.207Z,96041.34
2023-02-06T22:49:09.709Z,96050.13
2023-02-06T22:51:38.507Z,96030.41
2023-02-06T22:54:06.087Z,96050.81
2023-02-06T22:56:43.567Z,96055.34
2023-02-06T22:59:22.972Z,96061.56
2023-02-06T23:01:50.605Z,96065.91
2023-02-06T23:04:34.736Z,96049.69
2023-02-06T23:07:02.188Z,96063.38
2023-02-06T23:09:33.470Z,96060.00
2023-02-06T23:12:02.136Z,96067.59
2023-02-06T23:14:31.612Z,96063.03
2023-02-06T23:17:01.242Z,96059.19
2023-02-06T23:19:29.217Z,96044.78
2023-02-06T23:21:56.086Z,96041.31
2023-02-06T23:24:22.888Z,96044.44
2023-02-06T23:26:51.386Z,96021.47
2023-02-06T23:29:19.728Z,96036.91
2023-02-06T23:31:47.540Z,96035.75
2023-02-06T23:34:15.943Z,96048.44
2023-02-06T23:36:43.303Z,96053.28
2023-02-06T23:39:11.860Z,96040.50
2023-02-06T23:41:38.960Z,96035.00
2023-02-06T23:44:07.536Z,96041.09
2023-02-06T23:46:36.982Z,96050.47
2023-02-06T23:49:05.590Z,96059.56
2023-02-06T23:51:33.035Z,96058.34
2023-02-06T23:53:59.993Z,96055.50
2023-02-06T23:56:30.108Z,96073.53
2023-02-06T23:58:59.679Z,96076.75
